sensor_id;sensor_type;location;lat;lon;timestamp;temperature;humidity
47857;DHT22;33618;49.972;8.242;2022-12-18T00:01:01;-7.00;99.90
47857;DHT22;33618;49.972;8.242;2022-12-18T00:03:35;-7.00;99.90
47857;DHT22;33618;49.972;8.242;2022-12-18T00:06:03;-7.00;99.90
47857;DHT22;33618;49.972;8.242;2022-12-18T00:08:30;-7.00;99.90
47857;DHT22;33618;49.972;8.242;2022-12-18T00:11:04;-7.10;99.90
47857;DHT22;33618;49.972;8.242;2022-12-18T00:13:33;-7.10;99.90
47857;DHT22;33618;49.972;8.242;2022-12-18T00:16:10;-7.10;99.90
47857;DHT22;33618;49.972;8.242;2022-12-18T00:18:37;-7.10;99.90
47857;DHT22;33618;49.972;8.242;2022-12-18T00:21:07;-7.10;99.90
47857;DHT22;33618;49.972;8.242;2022-12-18T00:23:35;-7.20;99.90
47857;DHT22;33618;49.972;8.242;2022-12-18T00:26:06;-7.20;99.90
47857;DHT22;33618;49.972;8.242;2022-12-18T00:29:11;-7.20;99.90
47857;DHT22;33618;49.972;8.242;2022-12-18T00:31:43;-7.30;99.90
47857;DHT22;33618;49.972;8.242;2022-12-18T00:34:14;-7.30;99.90
47857;DHT22;33618;49.972;8.242;2022-12-18T00:36:42;-7.30;99.90
47857;DHT22;33618;49.972;8.242;2022-12-18T00:39:12;-7.40;99.90
47857;DHT22;33618;49.972;8.242;2022-12-18T00:41:40;-7.40;99.90
47857;DHT22;33618;49.972;8.242;2022-12-18T00:44:27;-7.40;99.90
47857;DHT22;33618;49.972;8.242;2022-12-18T00:46:56;-7.50;99.90
47857;DHT22;33618;49.972;8.242;2022-12-18T00:49:23;-7.50;99.90
47857;DHT22;33618;49.972;8.242;2022-12-18T00:51:50;-7.50;99.90
47857;DHT22;33618;49.972;8.242;2022-12-18T00:54:18;-7.50;99.90
47857;DHT22;33618;49.972;8.242;2022-12-18T00:56:45;-7.50;99.90
47857;DHT22;33618;49.972;8.242;2022-12-18T00:59:16;-7.50;99.90
47857;DHT22;33618;49.972;8.242;2022-12-18T01:01:46;-7.50;99.90
47857;DHT22;33618;49.972;8.242;2022-12-18T01:04:16;-7.50;99.90
47857;DHT22;33618;49.972;8.242;2022-12-18T01:06:45;-7.50;99.90
47857;DHT22;33618;49.972;8.242;2022-12-18T01:09:12;-7.60;99.90
47857;DHT22;33618;49.972;8.242;2022-12-18T01:11:39;-7.60;99.90
47857;DHT22;33618;49.972;8.242;2022-12-18T01:14:06;-7.60;99.90
47857;DHT22;33618;49.972;8.242;2022-12-18T01:16:33;-7.60;99.90
47857;DHT22;33618;49.972;8.242;2022-12-18T01:19:00;-7.60;99.90
47857;DHT22;33618;49.972;8.242;2022-12-18T01:21:27;-7.60;99.90
47857;DHT22;33618;49.972;8.242;2022-12-18T01:23:55;-7.70;99.90
47857;DHT22;33618;49.972;8.242;2022-12-18T01:26:24;-7.60;99.90
47857;DHT22;33618;49.972;8.242;2022-12-18T01:28:51;-7.70;99.90
47857;DHT22;33618;49.972;8.242;2022-12-18T01:31:20;-7.70;99.90
47857;DHT22;33618;49.972;8.242;2022-12-18T01:33:48;-7.70;99.90
47857;DHT22;33618;49.972;8.242;2022-12-18T01:36:30;-7.70;99.90
47857;DHT22;33618;49.972;8.242;2022-12-18T01:38:59;-7.70;99.90
47857;DHT22;33618;49.972;8.242;2022-12-18T01:41:29;-7.70;99.90
47857;DHT22;33618;49.972;8.242;2022-12-18T01:52:41;-7.80;99.90
47857;DHT22;33618;49.972;8.242;2022-12-18T01:55:09;-7.80;99.90
47857;DHT22;33618;49.972;8.242;2022-12-18T01:57:38;-7.90;99.90
47857;DHT22;33618;49.972;8.242;2022-12-18T02:00:12;-7.90;99.90
47857;DHT22;33618;49.972;8.242;2022-12-18T02:02:44;-8.00;99.90
47857;DHT22;33618;49.972;8.242;2022-12-18T02:05:13;-8.00;99.90
47857;DHT22;33618;49.972;8.242;2022-12-18T02:10:47;-8.00;99.90
47857;DHT22;33618;49.972;8.242;2022-12-18T02:16:33;-8.00;99.90
47857;DHT22;33618;49.972;8.242;2022-12-18T02:19:18;-8.00;99.90
47857;DHT22;33618;49.972;8.242;2022-12-18T02:22:02;-8.10;99.90
47857;DHT22;33618;49.972;8.242;2022-12-18T02:24:51;-8.10;99.90
47857;DHT22;33618;49.972;8.242;2022-12-18T02:27:22;-8.10;99.90
47857;DHT22;33618;49.972;8.242;2022-12-18T02:29:51;-8.20;99.90
47857;DHT22;33618;49.972;8.242;2022-12-18T02:32:30;-8.20;99.90
47857;DHT22;33618;49.972;8.242;2022-12-18T02:34:58;-8.30;99.90
47857;DHT22;33618;49.972;8.242;2022-12-18T02:37:27;-8.30;99.90
47857;DHT22;33618;49.972;8.242;2022-12-18T02:39:56;-8.30;99.90
47857;DHT22;33618;49.972;8.242;2022-12-18T02:42:24;-8.30;99.90
47857;DHT22;33618;49.972;8.242;2022-12-18T02:44:52;-8.30;99.90
47857;DHT22;33618;49.972;8.242;2022-12-18T02:47:24;-8.40;99.90
47857;DHT22;33618;49.972;8.242;2022-12-18T02:52:35;-8.40;99.90
47857;DHT22;33618;49.972;8.242;2022-12-18T03:00:58;-8.40;99.90
47857;DHT22;33618;49.972;8.242;2022-12-18T03:03:38;-8.40;99.90
47857;DHT22;33618;49.972;8.242;2022-12-18T03:06:32;-8.40;99.90
47857;DHT22;33618;49.972;8.242;2022-12-18T03:09:04;-8.40;99.90
47857;DHT22;33618;49.972;8.242;2022-12-18T03:11:35;-8.40;99.90
47857;DHT22;33618;49.972;8.242;2022-12-18T03:14:23;-8.50;99.90
47857;DHT22;33618;49.972;8.242;2022-12-18T03:16:54;-8.50;99.90
47857;DHT22;33618;49.972;8.242;2022-12-18T03:23:18;-8.60;99.90
47857;DHT22;33618;49.972;8.242;2022-12-18T03:25:54;-8.60;99.90
47857;DHT22;33618;49.972;8.242;2022-12-18T03:28:23;-8.60;99.90
47857;DHT22;33618;49.972;8.242;2022-12-18T03:30:55;-8.60;99.90
47857;DHT22;33618;49.972;8.242;2022-12-18T03:33:34;-8.60;99.90
47857;DHT22;33618;49.972;8.242;2022-12-18T03:36:04;-8.50;99.90
47857;DHT22;33618;49.972;8.242;2022-12-18T03:38:31;-8.50;99.90
47857;DHT22;33618;49.972;8.242;2022-12-18T03:41:15;-8.50;99.90
47857;DHT22;33618;49.972;8.242;2022-12-18T03:43:54;-8.60;99.90
47857;DHT22;33618;49.972;8.242;2022-12-18T03:55:05;-8.60;99.90
47857;DHT22;33618;49.972;8.242;2022-12-18T03:57:33;-8.60;99.90
47857;DHT22;33618;49.972;8.242;2022-12-18T04:00:08;-8.60;99.90
47857;DHT22;33618;49.972;8.242;2022-12-18T04:02:38;-8.70;99.90
47857;DHT22;33618;49.972;8.242;2022-12-18T04:05:07;-8.70;99.90
47857;DHT22;33618;49.972;8.242;2022-12-18T04:07:36;-8.70;99.90
47857;DHT22;33618;49.972;8.242;2022-12-18T04:10:06;-8.70;99.90
47857;DHT22;33618;49.972;8.242;2022-12-18T04:12:33;-8.70;99.90
47857;DHT22;33618;49.972;8.242;2022-12-18T04:14:59;-8.70;99.90
47857;DHT22;33618;49.972;8.242;2022-12-18T04:17:26;-8.80;99.90
47857;DHT22;33618;49.972;8.242;2022-12-18T04:19:53;-8.80;99.90
47857;DHT22;33618;49.972;8.242;2022-12-18T04:22:20;-8.80;99.90
47857;DHT22;33618;49.972;8.242;2022-12-18T04:24:47;-8.80;99.90
47857;DHT22;33618;49.972;8.242;2022-12-18T04:27:14;-8.80;99.90
47857;DHT22;33618;49.972;8.242;2022-12-18T04:29:41;-8.80;99.90
47857;DHT22;33618;49.972;8.242;2022-12-18T04:32:08;-8.80;99.90
47857;DHT22;33618;49.972;8.242;2022-12-18T04:34:35;-8.80;99.90
47857;DHT22;33618;49.972;8.242;2022-12-18T04:37:02;-8.80;99.90
47857;DHT22;33618;49.972;8.242;2022-12-18T04:39:29;-8.80;99.90
47857;DHT22;33618;49.972;8.242;2022-12-18T04:41:56;-8.80;99.90
47857;DHT22;33618;49.972;8.242;2022-12-18T04:44:23;-8.80;99.90
47857;DHT22;33618;49.972;8.242;2022-12-18T04:46:50;-8.80;99.90
47857;DHT22;33618;49.972;8.242;2022-12-18T04:49:17;-8.80;99.90
47857;DHT22;33618;49.972;8.242;2022-12-18T04:51:44;-8.90;99.90
47857;DHT22;33618;49.972;8.242;2022-12-18T04:54:10;-8.80;99.90
47857;DHT22;33618;49.972;8.242;2022-12-18T04:56:37;-8.90;99.90
47857;DHT22;33618;49.972;8.242;2022-12-18T04:59:04;-8.80;99.90
47857;DHT22;33618;49.972;8.242;2022-12-18T05:01:31;-8.70;99.90
47857;DHT22;33618;49.972;8.242;2022-12-18T05:04:01;-8.70;99.90
47857;DHT22;33618;49.972;8.242;2022-12-18T05:06:28;-8.60;99.90
47857;DHT22;33618;49.972;8.242;2022-12-18T05:08:56;-8.60;99.90
47857;DHT22;33618;49.972;8.242;2022-12-18T05:11:23;-8.60;99.90
47857;DHT22;33618;49.972;8.242;2022-12-18T05:13:50;-8.60;99.90
47857;DHT22;33618;49.972;8.242;2022-12-18T05:16:17;-8.60;99.90
47857;DHT22;33618;49.972;8.242;2022-12-18T05:18:44;-8.60;99.90
47857;DHT22;33618;49.972;8.242;2022-12-18T05:21:11;-8.60;99.90
47857;DHT22;33618;49.972;8.242;2022-12-18T05:23:38;-8.50;99.90
47857;DHT22;33618;49.972;8.242;2022-12-18T05:26:06;-8.50;99.90
47857;DHT22;33618;49.972;8.242;2022-12-18T05:28:35;-8.50;99.90
47857;DHT22;33618;49.972;8.242;2022-12-18T05:31:03;-8.50;99.90
47857;DHT22;33618;49.972;8.242;2022-12-18T05:33:33;-8.40;99.90
47857;DHT22;33618;49.972;8.242;2022-12-18T05:36:01;-8.40;99.90
47857;DHT22;33618;49.972;8.242;2022-12-18T05:38:30;-8.40;99.90
47857;DHT22;33618;49.972;8.242;2022-12-18T05:40:57;-8.40;99.90
47857;DHT22;33618;49.972;8.242;2022-12-18T05:43:25;-8.40;99.90
47857;DHT22;33618;49.972;8.242;2022-12-18T05:45:53;-8.40;99.90
47857;DHT22;33618;49.972;8.242;2022-12-18T05:48:21;-8.40;99.90
47857;DHT22;33618;49.972;8.242;2022-12-18T05:50:49;-8.40;99.90
47857;DHT22;33618;49.972;8.242;2022-12-18T05:53:18;-8.40;99.90
47857;DHT22;33618;49.972;8.242;2022-12-18T05:55:46;-8.40;99.90
47857;DHT22;33618;49.972;8.242;2022-12-18T05:58:15;-8.50;99.90
47857;DHT22;33618;49.972;8.242;2022-12-18T06:00:44;-8.50;99.90
47857;DHT22;33618;49.972;8.242;2022-12-18T06:03:12;-8.50;99.90
47857;DHT22;33618;49.972;8.242;2022-12-18T06:05:42;-8.50;99.90
47857;DHT22;33618;49.972;8.242;2022-12-18T06:08:12;-8.40;99.90
47857;DHT22;33618;49.972;8.242;2022-12-18T06:10:40;-8.40;99.90
47857;DHT22;33618;49.972;8.242;2022-12-18T06:13:07;-8.40;99.90
47857;DHT22;33618;49.972;8.242;2022-12-18T06:15:37;-8.40;99.90
47857;DHT22;33618;49.972;8.242;2022-12-18T06:18:04;-8.30;99.90
47857;DHT22;33618;49.972;8.242;2022-12-18T06:20:31;-8.30;99.90
47857;DHT22;33618;49.972;8.242;2022-12-18T06:23:00;-8.30;99.90
47857;DHT22;33618;49.972;8.242;2022-12-18T06:25:28;-8.30;99.90
47857;DHT22;33618;49.972;8.242;2022-12-18T06:36:21;-8.40;99.90
47857;DHT22;33618;49.972;8.242;2022-12-18T06:38:48;-8.30;99.90
47857;DHT22;33618;49.972;8.242;2022-12-18T06:41:17;-8.30;99.90
47857;DHT22;33618;49.972;8.242;2022-12-18T06:43:44;-8.30;99.90
47857;DHT22;33618;49.972;8.242;2022-12-18T06:46:12;-8.30;99.90
47857;DHT22;33618;49.972;8.242;2022-12-18T06:48:39;-8.30;99.90
47857;DHT22;33618;49.972;8.242;2022-12-18T06:51:07;-8.30;99.90
47857;DHT22;33618;49.972;8.242;2022-12-18T06:53:34;-8.30;99.90
47857;DHT22;33618;49.972;8.242;2022-12-18T06:56:04;-8.30;99.90
47857;DHT22;33618;49.972;8.242;2022-12-18T06:58:40;-8.30;99.90
47857;DHT22;33618;49.972;8.242;2022-12-18T07:01:09;-8.30;99.90
47857;DHT22;33618;49.972;8.242;2022-12-18T07:03:38;-8.30;99.90
47857;DHT22;33618;49.972;8.242;2022-12-18T07:06:14;-8.30;99.90
47857;DHT22;33618;49.972;8.242;2022-12-18T07:08:42;-8.30;99.90
47857;DHT22;33618;49.972;8.242;2022-12-18T07:11:09;-8.20;99.90
47857;DHT22;33618;49.972;8.242;2022-12-18T07:13:36;-8.20;99.90
47857;DHT22;33618;49.972;8.242;2022-12-18T07:16:09;-8.10;99.90
47857;DHT22;33618;49.972;8.242;2022-12-18T07:18:47;-8.10;99.90
47857;DHT22;33618;49.972;8.242;2022-12-18T07:21:17;-8.00;99.90
47857;DHT22;33618;49.972;8.242;2022-12-18T07:23:44;-7.90;99.90
47857;DHT22;33618;49.972;8.242;2022-12-18T07:26:17;-7.80;99.90
47857;DHT22;33618;49.972;8.242;2022-12-18T07:28:45;-7.80;99.90
47857;DHT22;33618;49.972;8.242;2022-12-18T07:31:16;-7.80;99.90
47857;DHT22;33618;49.972;8.242;2022-12-18T07:33:44;-7.70;99.90
47857;DHT22;33618;49.972;8.242;2022-12-18T07:36:12;-7.70;99.90
47857;DHT22;33618;49.972;8.242;2022-12-18T07:38:40;-7.70;99.90
47857;DHT22;33618;49.972;8.242;2022-12-18T07:41:12;-7.60;99.90
47857;DHT22;33618;49.972;8.242;2022-12-18T07:43:40;-7.60;99.90
47857;DHT22;33618;49.972;8.242;2022-12-18T07:46:09;-7.70;99.90
47857;DHT22;33618;49.972;8.242;2022-12-18T07:48:40;-7.70;99.90
47857;DHT22;33618;49.972;8.242;2022-12-18T07:51:07;-7.60;99.90
47857;DHT22;33618;49.972;8.242;2022-12-18T07:53:35;-7.60;99.90
47857;DHT22;33618;49.972;8.242;2022-12-18T07:56:06;-7.50;99.90
47857;DHT22;33618;49.972;8.242;2022-12-18T07:58:53;-7.50;99.90
47857;DHT22;33618;49.972;8.242;2022-12-18T08:01:21;-7.50;99.90
47857;DHT22;33618;49.972;8.242;2022-12-18T08:03:48;-7.40;99.90
47857;DHT22;33618;49.972;8.242;2022-12-18T08:06:18;-7.40;99.90
47857;DHT22;33618;49.972;8.242;2022-12-18T08:08:53;-7.40;99.90
47857;DHT22;33618;49.972;8.242;2022-12-18T08:11:22;-7.30;99.90
47857;DHT22;33618;49.972;8.242;2022-12-18T08:13:50;-7.20;99.90
47857;DHT22;33618;49.972;8.242;2022-12-18T08:16:18;-7.20;99.90
47857;DHT22;33618;49.972;8.242;2022-12-18T08:18:46;-7.20;99.90
47857;DHT22;33618;49.972;8.242;2022-12-18T08:21:18;-7.10;99.90
47857;DHT22;33618;49.972;8.242;2022-12-18T08:23:47;-7.10;99.90
47857;DHT22;33618;49.972;8.242;2022-12-18T08:26:17;-7.10;99.90
47857;DHT22;33618;49.972;8.242;2022-12-18T08:28:45;-6.90;99.90
47857;DHT22;33618;49.972;8.242;2022-12-18T08:31:14;-6.90;99.90
47857;DHT22;33618;49.972;8.242;2022-12-18T08:33:41;-6.80;99.90
47857;DHT22;33618;49.972;8.242;2022-12-18T08:36:10;-6.70;99.90
47857;DHT22;33618;49.972;8.242;2022-12-18T08:38:37;-6.60;99.90
47857;DHT22;33618;49.972;8.242;2022-12-18T08:41:07;-6.60;99.90
47857;DHT22;33618;49.972;8.242;2022-12-18T08:43:34;-6.60;99.90
47857;DHT22;33618;49.972;8.242;2022-12-18T08:46:21;-6.40;99.90
47857;DHT22;33618;49.972;8.242;2022-12-18T08:48:51;-6.40;99.90
47857;DHT22;33618;49.972;8.242;2022-12-18T08:51:19;-6.30;99.90
47857;DHT22;33618;49.972;8.242;2022-12-18T08:53:46;-6.20;99.90
47857;DHT22;33618;49.972;8.242;2022-12-18T08:56:14;-6.10;99.90
47857;DHT22;33618;49.972;8.242;2022-12-18T08:58:42;-6.00;99.90
47857;DHT22;33618;49.972;8.242;2022-12-18T09:01:11;-5.90;99.90
47857;DHT22;33618;49.972;8.242;2022-12-18T09:03:39;-5.80;99.90
47857;DHT22;33618;49.972;8.242;2022-12-18T09:06:07;-5.70;99.90
47857;DHT22;33618;49.972;8.242;2022-12-18T09:08:35;-5.70;99.90
47857;DHT22;33618;49.972;8.242;2022-12-18T09:11:04;-5.70;99.90
47857;DHT22;33618;49.972;8.242;2022-12-18T09:13:31;-5.60;99.90
47857;DHT22;33618;49.972;8.242;2022-12-18T09:15:58;-5.40;99.90
47857;DHT22;33618;49.972;8.242;2022-12-18T09:18:26;-5.30;99.90
47857;DHT22;33618;49.972;8.242;2022-12-18T09:20:52;-5.10;99.90
47857;DHT22;33618;49.972;8.242;2022-12-18T09:23:21;-5.00;99.90
47857;DHT22;33618;49.972;8.242;2022-12-18T09:25:48;-4.90;99.90
47857;DHT22;33618;49.972;8.242;2022-12-18T09:28:18;-4.90;99.90
47857;DHT22;33618;49.972;8.242;2022-12-18T09:30:48;-4.70;99.90
47857;DHT22;33618;49.972;8.242;2022-12-18T09:33:16;-4.70;99.90
47857;DHT22;33618;49.972;8.242;2022-12-18T09:35:45;-4.50;99.90
47857;DHT22;33618;49.972;8.242;2022-12-18T09:38:14;-4.50;99.90
47857;DHT22;33618;49.972;8.242;2022-12-18T09:40:51;-4.50;99.90
47857;DHT22;33618;49.972;8.242;2022-12-18T09:43:37;-4.40;99.90
47857;DHT22;33618;49.972;8.242;2022-12-18T09:46:19;-4.30;99.90
47857;DHT22;33618;49.972;8.242;2022-12-18T09:48:49;-4.20;99.90
47857;DHT22;33618;49.972;8.242;2022-12-18T09:51:23;-4.20;99.90
47857;DHT22;33618;49.972;8.242;2022-12-18T09:53:58;-4.00;99.90
47857;DHT22;33618;49.972;8.242;2022-12-18T09:56:28;-4.00;99.90
47857;DHT22;33618;49.972;8.242;2022-12-18T09:59:00;-4.00;99.90
47857;DHT22;33618;49.972;8.242;2022-12-18T10:01:29;-4.10;99.90
47857;DHT22;33618;49.972;8.242;2022-12-18T10:04:09;-4.20;99.90
47857;DHT22;33618;49.972;8.242;2022-12-18T10:09:37;-4.00;99.90
47857;DHT22;33618;49.972;8.242;2022-12-18T10:12:26;-3.80;99.90
47857;DHT22;33618;49.972;8.242;2022-12-18T10:20:19;-3.30;99.90
47857;DHT22;33618;49.972;8.242;2022-12-18T10:23:10;-3.30;99.90
47857;DHT22;33618;49.972;8.242;2022-12-18T10:26:00;-3.10;99.90
47857;DHT22;33618;49.972;8.242;2022-12-18T10:28:30;-3.00;99.90
47857;DHT22;33618;49.972;8.242;2022-12-18T10:30:58;-2.90;99.90
47857;DHT22;33618;49.972;8.242;2022-12-18T10:33:29;-2.70;99.90
47857;DHT22;33618;49.972;8.242;2022-12-18T10:35:56;-2.70;99.90
47857;DHT22;33618;49.972;8.242;2022-12-18T10:38:28;-2.60;99.90
47857;DHT22;33618;49.972;8.242;2022-12-18T10:41:23;-2.60;99.90
47857;DHT22;33618;49.972;8.242;2022-12-18T10:44:12;-2.70;99.90
47857;DHT22;33618;49.972;8.242;2022-12-18T10:46:39;-2.60;99.90
47857;DHT22;33618;49.972;8.242;2022-12-18T10:49:23;-2.50;99.90
47857;DHT22;33618;49.972;8.242;2022-12-18T10:51:51;-2.40;99.90
47857;DHT22;33618;49.972;8.242;2022-12-18T10:54:31;-2.30;99.90
47857;DHT22;33618;49.972;8.242;2022-12-18T10:57:35;-2.10;99.90
47857;DHT22;33618;49.972;8.242;2022-12-18T11:00:39;-1.90;99.90
47857;DHT22;33618;49.972;8.242;2022-12-18T11:03:30;-1.80;99.90
47857;DHT22;33618;49.972;8.242;2022-12-18T11:08:31;-1.50;99.90
47857;DHT22;33618;49.972;8.242;2022-12-18T11:10:58;-1.40;99.90
47857;DHT22;33618;49.972;8.242;2022-12-18T11:13:29;-1.30;99.90
47857;DHT22;33618;49.972;8.242;2022-12-18T11:15:56;-1.20;99.90
47857;DHT22;33618;49.972;8.242;2022-12-18T11:18:34;-0.90;99.90
47857;DHT22;33618;49.972;8.242;2022-12-18T11:21:09;-0.80;99.90
47857;DHT22;33618;49.972;8.242;2022-12-18T11:23:52;-1.00;99.90
47857;DHT22;33618;49.972;8.242;2022-12-18T11:26:20;-1.00;99.90
47857;DHT22;33618;49.972;8.242;2022-12-18T11:29:10;-1.00;99.90
47857;DHT22;33618;49.972;8.242;2022-12-18T11:31:43;-0.90;99.90
47857;DHT22;33618;49.972;8.242;2022-12-18T11:34:46;-0.90;99.90
47857;DHT22;33618;49.972;8.242;2022-12-18T11:37:19;-0.80;99.90
47857;DHT22;33618;49.972;8.242;2022-12-18T11:39:51;-0.70;99.90
47857;DHT22;33618;49.972;8.242;2022-12-18T11:44:58;-0.80;99.90
47857;DHT22;33618;49.972;8.242;2022-12-18T11:50:17;-0.70;99.90
47857;DHT22;33618;49.972;8.242;2022-12-18T11:52:45;-0.90;99.90
47857;DHT22;33618;49.972;8.242;2022-12-18T11:55:28;-1.00;99.90
47857;DHT22;33618;49.972;8.242;2022-12-18T11:58:13;-1.00;99.90
47857;DHT22;33618;49.972;8.242;2022-12-18T12:00:53;-0.90;99.90
47857;DHT22;33618;49.972;8.242;2022-12-18T12:04:08;-1.00;99.90
47857;DHT22;33618;49.972;8.242;2022-12-18T12:06:54;-1.20;99.90
47857;DHT22;33618;49.972;8.242;2022-12-18T12:15:06;-1.30;99.90
47857;DHT22;33618;49.972;8.242;2022-12-18T12:17:49;-1.20;99.90
47857;DHT22;33618;49.972;8.242;2022-12-18T12:20:31;-1.20;99.90
47857;DHT22;33618;49.972;8.242;2022-12-18T12:23:26;-1.00;99.90
47857;DHT22;33618;49.972;8.242;2022-12-18T12:25:57;-1.00;99.90
47857;DHT22;33618;49.972;8.242;2022-12-18T12:34:31;-1.10;99.90
47857;DHT22;33618;49.972;8.242;2022-12-18T12:37:19;-1.20;99.90
47857;DHT22;33618;49.972;8.242;2022-12-18T12:39:51;-1.30;99.90
47857;DHT22;33618;49.972;8.242;2022-12-18T12:42:36;-1.30;99.90
47857;DHT22;33618;49.972;8.242;2022-12-18T12:45:33;-1.30;99.90
47857;DHT22;33618;49.972;8.242;2022-12-18T12:48:02;-1.50;99.90
47857;DHT22;33618;49.972;8.242;2022-12-18T12:50:34;-1.50;99.90
47857;DHT22;33618;49.972;8.242;2022-12-18T12:53:06;-1.40;99.90
47857;DHT22;33618;49.972;8.242;2022-12-18T12:55:36;-1.20;99.90
47857;DHT22;33618;49.972;8.242;2022-12-18T12:58:07;-1.10;99.90
47857;DHT22;33618;49.972;8.242;2022-12-18T13:00:54;-1.00;99.90
47857;DHT22;33618;49.972;8.242;2022-12-18T13:08:59;-1.10;99.90
47857;DHT22;33618;49.972;8.242;2022-12-18T13:14:44;-1.20;99.90
47857;DHT22;33618;49.972;8.242;2022-12-18T13:19:50;-1.20;99.90
47857;DHT22;33618;49.972;8.242;2022-12-18T13:22:28;-1.30;99.90
47857;DHT22;33618;49.972;8.242;2022-12-18T13:43:36;-1.30;99.90
47857;DHT22;33618;49.972;8.242;2022-12-18T13:46:24;-1.40;99.90
47857;DHT22;33618;49.972;8.242;2022-12-18T13:49:00;-1.40;99.90
47857;DHT22;33618;49.972;8.242;2022-12-18T13:51:29;-1.40;99.90
47857;DHT22;33618;49.972;8.242;2022-12-18T13:54:02;-1.30;99.90
47857;DHT22;33618;49.972;8.242;2022-12-18T13:56:33;-1.50;99.90
47857;DHT22;33618;49.972;8.242;2022-12-18T13:59:22;-1.60;99.90
47857;DHT22;33618;49.972;8.242;2022-12-18T14:04:33;-1.70;99.90
47857;DHT22;33618;49.972;8.242;2022-12-18T14:07:06;-1.80;99.90
47857;DHT22;33618;49.972;8.242;2022-12-18T16:54:51;-3.20;99.90
47857;DHT22;33618;49.972;8.242;2022-12-18T16:57:25;-3.20;99.90
47857;DHT22;33618;49.972;8.242;2022-12-18T16:59:53;-3.20;99.90
47857;DHT22;33618;49.972;8.242;2022-12-18T18:16:13;-2.80;99.90
47857;DHT22;33618;49.972;8.242;2022-12-18T18:18:42;-2.80;99.90
47857;DHT22;33618;49.972;8.242;2022-12-18T18:21:09;-2.80;99.90
47857;DHT22;33618;49.972;8.242;2022-12-18T18:23:39;-2.80;99.90
47857;DHT22;33618;49.972;8.242;2022-12-18T18:56:31;-2.80;99.90
47857;DHT22;33618;49.972;8.242;2022-12-18T18:59:19;-2.70;99.90
47857;DHT22;33618;49.972;8.242;2022-12-18T19:01:56;-2.60;99.90
47857;DHT22;33618;49.972;8.242;2022-12-18T19:04:24;-2.60;99.90
47857;DHT22;33618;49.972;8.242;2022-12-18T19:06:52;-2.60;99.90
47857;DHT22;33618;49.972;8.242;2022-12-18T19:09:20;-2.50;99.90
47857;DHT22;33618;49.972;8.242;2022-12-18T19:11:48;-2.60;99.90
47857;DHT22;33618;49.972;8.242;2022-12-18T19:18:34;-2.50;99.90
47857;DHT22;33618;49.972;8.242;2022-12-18T19:21:05;-2.50;99.90
47857;DHT22;33618;49.972;8.242;2022-12-18T19:23:33;-2.50;99.90
47857;DHT22;33618;49.972;8.242;2022-12-18T19:26:06;-2.50;99.90
47857;DHT22;33618;49.972;8.242;2022-12-18T19:36:59;-2.40;99.90
47857;DHT22;33618;49.972;8.242;2022-12-18T19:39:27;-2.40;99.90
47857;DHT22;33618;49.972;8.242;2022-12-18T19:41:56;-2.40;99.90
47857;DHT22;33618;49.972;8.242;2022-12-18T19:44:26;-2.30;99.90
47857;DHT22;33618;49.972;8.242;2022-12-18T19:46:56;-2.30;99.90
47857;DHT22;33618;49.972;8.242;2022-12-18T19:49:23;-2.30;99.90
47857;DHT22;33618;49.972;8.242;2022-12-18T19:51:51;-2.40;99.90
47857;DHT22;33618;49.972;8.242;2022-12-18T20:17:51;-2.30;99.90
47857;DHT22;33618;49.972;8.242;2022-12-18T20:20:19;-2.30;99.90
47857;DHT22;33618;49.972;8.242;2022-12-18T20:22:46;-2.40;99.90
47857;DHT22;33618;49.972;8.242;2022-12-18T20:25:13;-2.40;99.90
47857;DHT22;33618;49.972;8.242;2022-12-18T20:27:40;-2.30;99.90
47857;DHT22;33618;49.972;8.242;2022-12-18T20:30:08;-2.30;99.90
47857;DHT22;33618;49.972;8.242;2022-12-18T20:32:35;-2.40;99.90
47857;DHT22;33618;49.972;8.242;2022-12-18T20:35:03;-2.30;99.90
47857;DHT22;33618;49.972;8.242;2022-12-18T20:37:32;-2.30;99.90
47857;DHT22;33618;49.972;8.242;2022-12-18T20:39:59;-2.30;99.90
47857;DHT22;33618;49.972;8.242;2022-12-18T20:42:27;-2.20;99.90
47857;DHT22;33618;49.972;8.242;2022-12-18T20:44:54;-2.20;99.90
47857;DHT22;33618;49.972;8.242;2022-12-18T20:55:40;-2.10;99.90
47857;DHT22;33618;49.972;8.242;2022-12-18T20:58:25;-2.00;99.90
47857;DHT22;33618;49.972;8.242;2022-12-18T21:01:14;-2.00;99.90
47857;DHT22;33618;49.972;8.242;2022-12-18T21:03:42;-2.00;99.90
47857;DHT22;33618;49.972;8.242;2022-12-18T21:06:12;-2.00;99.90
47857;DHT22;33618;49.972;8.242;2022-12-18T21:08:40;-2.10;99.90
47857;DHT22;33618;49.972;8.242;2022-12-18T21:11:29;-2.10;99.90
47857;DHT22;33618;49.972;8.242;2022-12-18T21:14:16;-2.10;99.90
47857;DHT22;33618;49.972;8.242;2022-12-18T21:16:44;-2.10;99.90
47857;DHT22;33618;49.972;8.242;2022-12-18T21:19:12;-2.10;99.90
47857;DHT22;33618;49.972;8.242;2022-12-18T21:21:40;-2.10;99.90
47857;DHT22;33618;49.972;8.242;2022-12-18T21:24:09;-2.00;99.90
47857;DHT22;33618;49.972;8.242;2022-12-18T21:26:37;-1.90;99.90
47857;DHT22;33618;49.972;8.242;2022-12-18T21:29:13;-1.90;99.90
47857;DHT22;33618;49.972;8.242;2022-12-18T21:31:41;-1.90;99.90
47857;DHT22;33618;49.972;8.242;2022-12-18T21:34:18;-1.90;99.90
47857;DHT22;33618;49.972;8.242;2022-12-18T21:36:45;-1.80;99.90
47857;DHT22;33618;49.972;8.242;2022-12-18T21:39:13;-1.90;99.90
47857;DHT22;33618;49.972;8.242;2022-12-18T21:41:40;-1.80;99.90
47857;DHT22;33618;49.972;8.242;2022-12-18T21:44:27;-1.90;99.90
47857;DHT22;33618;49.972;8.242;2022-12-18T21:46:55;-1.80;99.90
47857;DHT22;33618;49.972;8.242;2022-12-18T21:49:35;-1.90;99.90
47857;DHT22;33618;49.972;8.242;2022-12-18T21:52:02;-1.90;99.90
47857;DHT22;33618;49.972;8.242;2022-12-18T22:24:50;-1.90;99.90
47857;DHT22;33618;49.972;8.242;2022-12-18T22:27:17;-1.90;99.90
47857;DHT22;33618;49.972;8.242;2022-12-18T22:29:44;-1.90;99.90
47857;DHT22;33618;49.972;8.242;2022-12-18T22:32:33;-1.90;99.90
47857;DHT22;33618;49.972;8.242;2022-12-18T22:35:03;-1.90;99.90
47857;DHT22;33618;49.972;8.242;2022-12-18T22:37:38;-1.90;99.90
47857;DHT22;33618;49.972;8.242;2022-12-18T22:40:05;-1.80;99.90
47857;DHT22;33618;49.972;8.242;2022-12-18T22:42:33;-1.80;99.90
47857;DHT22;33618;49.972;8.242;2022-12-18T22:45:00;-1.70;99.90
47857;DHT22;33618;49.972;8.242;2022-12-18T22:55:41;-1.80;99.90
47857;DHT22;33618;49.972;8.242;2022-12-18T22:58:08;-1.80;99.90
47857;DHT22;33618;49.972;8.242;2022-12-18T23:00:36;-1.80;99.90
47857;DHT22;33618;49.972;8.242;2022-12-18T23:03:05;-1.70;99.90
47857;DHT22;33618;49.972;8.242;2022-12-18T23:05:33;-1.70;99.90
47857;DHT22;33618;49.972;8.242;2022-12-18T23:08:00;-1.70;99.90
47857;DHT22;33618;49.972;8.242;2022-12-18T23:10:27;-1.60;99.90
47857;DHT22;33618;49.972;8.242;2022-12-18T23:12:55;-1.60;99.90
47857;DHT22;33618;49.972;8.242;2022-12-18T23:15:21;-1.60;99.90
47857;DHT22;33618;49.972;8.242;2022-12-18T23:17:55;-1.60;99.90
47857;DHT22;33618;49.972;8.242;2022-12-18T23:20:23;-1.50;99.90
47857;DHT22;33618;49.972;8.242;2022-12-18T23:22:51;-1.60;99.90
47857;DHT22;33618;49.972;8.242;2022-12-18T23:25:18;-1.70;99.90
47857;DHT22;33618;49.972;8.242;2022-12-18T23:27:45;-1.60;99.90
47857;DHT22;33618;49.972;8.242;2022-12-18T23:30:13;-1.60;99.90
47857;DHT22;33618;49.972;8.242;2022-12-18T23:32:39;-1.60;99.90
47857;DHT22;33618;49.972;8.242;2022-12-18T23:35:07;-1.60;99.90